sensor_id;sensor_type;location;lat;lon;timestamp;P1;durP1;ratioP1;P2;durP2;ratioP2
37847;SDS011;23688;33.130;-117.188;2023-08-08T00:01:16;6.55;;;3.05;;
37847;SDS011;23688;33.130;-117.188;2023-08-08T00:03:42;7.65;;;4.10;;
37847;SDS011;23688;33.130;-117.188;2023-08-08T00:06:09;9.43;;;4.18;;
37847;SDS011;23688;33.130;-117.188;2023-08-08T00:08:35;9.43;;;3.95;;
37847;SDS011;23688;33.130;-117.188;2023-08-08T00:11:02;8.45;;;4.25;;
37847;SDS011;23688;33.130;-117.188;2023-08-08T00:13:28;6.82;;;3.50;;
37847;SDS011;23688;33.130;-117.188;2023-08-08T00:15:54;7.57;;;2.95;;
37847;SDS011;23688;33.130;-117.188;2023-08-08T00:18:20;10.38;;;4.28;;
37847;SDS011;23688;33.130;-117.188;2023-08-08T00:20:47;6.72;;;4.05;;
37847;SDS011;23688;33.130;-117.188;2023-08-08T00:23:13;7.07;;;3.90;;
37847;SDS011;23688;33.130;-117.188;2023-08-08T00:25:39;11.20;;;3.92;;
37847;SDS011;23688;33.130;-117.188;2023-08-08T00:28:06;7.68;;;3.85;;
37847;SDS011;23688;33.130;-117.188;2023-08-08T00:30:32;11.55;;;4.30;;
37847;SDS011;23688;33.130;-117.188;2023-08-08T00:32:58;8.85;;;4.88;;
37847;SDS011;23688;33.130;-117.188;2023-08-08T00:35:25;8.95;;;4.15;;
37847;SDS011;23688;33.130;-117.188;2023-08-08T00:37:51;9.75;;;4.28;;
37847;SDS011;23688;33.130;-117.188;2023-08-08T00:40:17;11.75;;;4.90;;
37847;SDS011;23688;33.130;-117.188;2023-08-08T00:42:44;9.35;;;4.20;;
37847;SDS011;23688;33.130;-117.188;2023-08-08T00:45:10;12.65;;;5.10;;
37847;SDS011;23688;33.130;-117.188;2023-08-08T00:47:36;13.20;;;5.03;;
37847;SDS011;23688;33.130;-117.188;2023-08-08T00:50:03;9.13;;;4.75;;
37847;SDS011;23688;33.130;-117.188;2023-08-08T00:52:30;12.13;;;5.18;;
37847;SDS011;23688;33.130;-117.188;2023-08-08T00:54:57;9.00;;;4.28;;
37847;SDS011;23688;33.130;-117.188;2023-08-08T00:57:25;9.80;;;4.38;;
37847;SDS011;23688;33.130;-117.188;2023-08-08T00:59:51;10.95;;;4.70;;
37847;SDS011;23688;33.130;-117.188;2023-08-08T01:02:18;9.77;;;4.78;;
37847;SDS011;23688;33.130;-117.188;2023-08-08T01:04:44;11.55;;;4.43;;
37847;SDS011;23688;33.130;-117.188;2023-08-08T01:08:11;9.50;;;4.30;;
37847;SDS011;23688;33.130;-117.188;2023-08-08T01:10:34;10.95;;;4.80;;
37847;SDS011;23688;33.130;-117.188;2023-08-08T01:13:05;9.30;;;4.13;;
37847;SDS011;23688;33.130;-117.188;2023-08-08T01:15:36;9.63;;;4.38;;
37847;SDS011;23688;33.130;-117.188;2023-08-08T01:18:03;10.63;;;4.45;;
37847;SDS011;23688;33.130;-117.188;2023-08-08T01:20:31;11.40;;;4.60;;
37847;SDS011;23688;33.130;-117.188;2023-08-08T01:23:03;9.73;;;4.63;;
37847;SDS011;23688;33.130;-117.188;2023-08-08T01:26:03;9.10;;;4.43;;
37847;SDS011;23688;33.130;-117.188;2023-08-08T01:28:29;10.23;;;4.25;;
37847;SDS011;23688;33.130;-117.188;2023-08-08T01:30:56;10.20;;;4.78;;
37847;SDS011;23688;33.130;-117.188;2023-08-08T01:33:22;11.15;;;4.70;;
37847;SDS011;23688;33.130;-117.188;2023-08-08T01:35:58;9.32;;;4.75;;
37847;SDS011;23688;33.130;-117.188;2023-08-08T01:38:30;10.98;;;5.55;;
37847;SDS011;23688;33.130;-117.188;2023-08-08T01:41:03;12.43;;;4.57;;
37847;SDS011;23688;33.130;-117.188;2023-08-08T01:43:33;8.35;;;4.10;;
37847;SDS011;23688;33.130;-117.188;2023-08-08T01:46:00;9.10;;;4.63;;
37847;SDS011;23688;33.130;-117.188;2023-08-08T01:48:28;9.02;;;4.38;;
37847;SDS011;23688;33.130;-117.188;2023-08-08T01:50:54;6.32;;;4.35;;
37847;SDS011;23688;33.130;-117.188;2023-08-08T01:53:21;10.95;;;4.78;;
37847;SDS011;23688;33.130;-117.188;2023-08-08T01:55:47;12.15;;;5.18;;
37847;SDS011;23688;33.130;-117.188;2023-08-08T01:58:14;8.98;;;4.80;;
37847;SDS011;23688;33.130;-117.188;2023-08-08T02:00:40;14.15;;;5.90;;
37847;SDS011;23688;33.130;-117.188;2023-08-08T02:03:09;10.73;;;5.93;;
37847;SDS011;23688;33.130;-117.188;2023-08-08T02:05:35;13.32;;;5.97;;
37847;SDS011;23688;33.130;-117.188;2023-08-08T02:08:02;10.75;;;6.15;;
37847;SDS011;23688;33.130;-117.188;2023-08-08T02:10:28;13.38;;;5.38;;
37847;SDS011;23688;33.130;-117.188;2023-08-08T02:12:55;17.88;;;5.97;;
37847;SDS011;23688;33.130;-117.188;2023-08-08T02:15:21;16.35;;;5.95;;
37847;SDS011;23688;33.130;-117.188;2023-08-08T02:17:49;11.10;;;5.72;;
37847;SDS011;23688;33.130;-117.188;2023-08-08T02:20:17;16.65;;;6.45;;
37847;SDS011;23688;33.130;-117.188;2023-08-08T02:22:43;12.67;;;5.50;;
37847;SDS011;23688;33.130;-117.188;2023-08-08T02:25:10;16.42;;;5.80;;
37847;SDS011;23688;33.130;-117.188;2023-08-08T02:27:38;12.52;;;5.78;;
37847;SDS011;23688;33.130;-117.188;2023-08-08T02:30:04;14.50;;;6.05;;
37847;SDS011;23688;33.130;-117.188;2023-08-08T02:32:31;17.30;;;6.23;;
37847;SDS011;23688;33.130;-117.188;2023-08-08T02:34:58;17.40;;;6.95;;
37847;SDS011;23688;33.130;-117.188;2023-08-08T02:37:24;21.38;;;6.35;;
37847;SDS011;23688;33.130;-117.188;2023-08-08T02:39:51;19.23;;;7.28;;
37847;SDS011;23688;33.130;-117.188;2023-08-08T02:42:17;9.48;;;5.28;;
37847;SDS011;23688;33.130;-117.188;2023-08-08T02:44:43;11.75;;;6.05;;
37847;SDS011;23688;33.130;-117.188;2023-08-08T02:47:10;13.13;;;6.40;;
37847;SDS011;23688;33.130;-117.188;2023-08-08T02:49:36;12.10;;;5.80;;
37847;SDS011;23688;33.130;-117.188;2023-08-08T02:52:03;12.65;;;6.68;;
37847;SDS011;23688;33.130;-117.188;2023-08-08T02:54:29;11.98;;;6.07;;
37847;SDS011;23688;33.130;-117.188;2023-08-08T02:56:56;13.90;;;7.00;;
37847;SDS011;23688;33.130;-117.188;2023-08-08T02:59:22;12.30;;;6.50;;
37847;SDS011;23688;33.130;-117.188;2023-08-08T03:01:48;17.48;;;6.03;;
37847;SDS011;23688;33.130;-117.188;2023-08-08T03:04:15;12.07;;;7.45;;
37847;SDS011;23688;33.130;-117.188;2023-08-08T03:06:41;12.55;;;6.13;;
37847;SDS011;23688;33.130;-117.188;2023-08-08T03:09:07;13.65;;;6.63;;
37847;SDS011;23688;33.130;-117.188;2023-08-08T03:11:34;18.95;;;7.70;;
37847;SDS011;23688;33.130;-117.188;2023-08-08T03:16:28;15.32;;;6.20;;
37847;SDS011;23688;33.130;-117.188;2023-08-08T03:18:55;15.32;;;6.47;;
37847;SDS011;23688;33.130;-117.188;2023-08-08T03:21:22;16.23;;;7.10;;
37847;SDS011;23688;33.130;-117.188;2023-08-08T03:23:51;10.30;;;6.05;;
37847;SDS011;23688;33.130;-117.188;2023-08-08T03:26:17;14.02;;;6.70;;
37847;SDS011;23688;33.130;-117.188;2023-08-08T03:28:44;15.15;;;7.25;;
37847;SDS011;23688;33.130;-117.188;2023-08-08T03:31:15;14.10;;;6.43;;
37847;SDS011;23688;33.130;-117.188;2023-08-08T03:34:02;12.93;;;6.05;;
37847;SDS011;23688;33.130;-117.188;2023-08-08T03:36:30;17.83;;;6.95;;
37847;SDS011;23688;33.130;-117.188;2023-08-08T03:38:56;18.20;;;7.30;;
37847;SDS011;23688;33.130;-117.188;2023-08-08T03:41:23;16.63;;;7.45;;
37847;SDS011;23688;33.130;-117.188;2023-08-08T03:43:49;16.55;;;6.93;;
37847;SDS011;23688;33.130;-117.188;2023-08-08T03:46:15;15.40;;;6.55;;
37847;SDS011;23688;33.130;-117.188;2023-08-08T03:48:44;18.25;;;6.35;;
37847;SDS011;23688;33.130;-117.188;2023-08-08T03:51:10;11.73;;;5.78;;
37847;SDS011;23688;33.130;-117.188;2023-08-08T03:53:38;15.30;;;6.50;;
37847;SDS011;23688;33.130;-117.188;2023-08-08T03:56:04;11.60;;;5.72;;
37847;SDS011;23688;33.130;-117.188;2023-08-08T03:58:30;14.68;;;7.10;;
37847;SDS011;23688;33.130;-117.188;2023-08-08T04:00:56;12.05;;;5.78;;
37847;SDS011;23688;33.130;-117.188;2023-08-08T04:03:23;12.30;;;6.13;;
37847;SDS011;23688;33.130;-117.188;2023-08-08T04:05:49;12.38;;;6.05;;
37847;SDS011;23688;33.130;-117.188;2023-08-08T04:08:16;17.92;;;6.85;;
37847;SDS011;23688;33.130;-117.188;2023-08-08T04:10:43;19.33;;;6.88;;
37847;SDS011;23688;33.130;-117.188;2023-08-08T04:13:15;16.58;;;7.50;;
37847;SDS011;23688;33.130;-117.188;2023-08-08T04:15:41;12.60;;;5.78;;
37847;SDS011;23688;33.130;-117.188;2023-08-08T04:18:09;13.63;;;6.35;;
37847;SDS011;23688;33.130;-117.188;2023-08-08T04:20:36;11.73;;;6.00;;
37847;SDS011;23688;33.130;-117.188;2023-08-08T04:23:06;12.55;;;6.65;;
37847;SDS011;23688;33.130;-117.188;2023-08-08T04:27:58;15.00;;;6.70;;
37847;SDS011;23688;33.130;-117.188;2023-08-08T04:30:25;15.38;;;6.85;;
37847;SDS011;23688;33.130;-117.188;2023-08-08T04:32:51;14.98;;;6.60;;
37847;SDS011;23688;33.130;-117.188;2023-08-08T04:35:17;12.98;;;6.20;;
37847;SDS011;23688;33.130;-117.188;2023-08-08T04:37:44;13.98;;;6.78;;
37847;SDS011;23688;33.130;-117.188;2023-08-08T04:40:10;20.30;;;8.10;;
37847;SDS011;23688;33.130;-117.188;2023-08-08T04:42:37;15.95;;;7.28;;
37847;SDS011;23688;33.130;-117.188;2023-08-08T04:45:03;13.70;;;6.43;;
37847;SDS011;23688;33.130;-117.188;2023-08-08T04:47:30;23.50;;;7.85;;
37847;SDS011;23688;33.130;-117.188;2023-08-08T04:50:00;11.80;;;6.82;;
37847;SDS011;23688;33.130;-117.188;2023-08-08T04:52:27;18.85;;;6.22;;
37847;SDS011;23688;33.130;-117.188;2023-08-08T04:54:53;16.08;;;6.78;;
37847;SDS011;23688;33.130;-117.188;2023-08-08T04:57:25;17.15;;;7.05;;
37847;SDS011;23688;33.130;-117.188;2023-08-08T04:59:51;15.60;;;6.30;;
37847;SDS011;23688;33.130;-117.188;2023-08-08T05:02:18;19.52;;;6.95;;
37847;SDS011;23688;33.130;-117.188;2023-08-08T05:04:44;19.08;;;6.68;;
37847;SDS011;23688;33.130;-117.188;2023-08-08T05:07:10;18.08;;;6.82;;
37847;SDS011;23688;33.130;-117.188;2023-08-08T05:09:37;20.23;;;7.28;;
37847;SDS011;23688;33.130;-117.188;2023-08-08T05:12:03;14.07;;;6.78;;
37847;SDS011;23688;33.130;-117.188;2023-08-08T05:14:30;17.02;;;7.53;;
37847;SDS011;23688;33.130;-117.188;2023-08-08T05:16:56;11.80;;;6.20;;
37847;SDS011;23688;33.130;-117.188;2023-08-08T05:19:22;15.68;;;6.30;;
37847;SDS011;23688;33.130;-117.188;2023-08-08T05:21:50;16.27;;;6.75;;
37847;SDS011;23688;33.130;-117.188;2023-08-08T05:24:17;16.98;;;7.15;;
37847;SDS011;23688;33.130;-117.188;2023-08-08T05:26:43;21.58;;;6.90;;
37847;SDS011;23688;33.130;-117.188;2023-08-08T05:29:09;19.08;;;7.20;;
37847;SDS011;23688;33.130;-117.188;2023-08-08T05:31:35;18.33;;;6.45;;
37847;SDS011;23688;33.130;-117.188;2023-08-08T05:34:02;15.23;;;7.05;;
37847;SDS011;23688;33.130;-117.188;2023-08-08T05:36:28;14.45;;;6.47;;
37847;SDS011;23688;33.130;-117.188;2023-08-08T05:38:55;15.65;;;7.20;;
37847;SDS011;23688;33.130;-117.188;2023-08-08T05:41:24;16.73;;;5.90;;
37847;SDS011;23688;33.130;-117.188;2023-08-08T05:43:53;15.50;;;6.20;;
37847;SDS011;23688;33.130;-117.188;2023-08-08T05:46:19;18.77;;;7.38;;
37847;SDS011;23688;33.130;-117.188;2023-08-08T05:48:46;16.95;;;7.50;;
37847;SDS011;23688;33.130;-117.188;2023-08-08T05:51:12;16.95;;;7.05;;
37847;SDS011;23688;33.130;-117.188;2023-08-08T05:53:38;13.90;;;6.68;;
37847;SDS011;23688;33.130;-117.188;2023-08-08T05:56:06;25.08;;;7.70;;
37847;SDS011;23688;33.130;-117.188;2023-08-08T05:58:34;18.73;;;7.47;;
37847;SDS011;23688;33.130;-117.188;2023-08-08T06:01:02;20.65;;;7.72;;
37847;SDS011;23688;33.130;-117.188;2023-08-08T06:03:35;19.73;;;7.28;;
37847;SDS011;23688;33.130;-117.188;2023-08-08T06:06:05;22.02;;;7.32;;
37847;SDS011;23688;33.130;-117.188;2023-08-08T06:08:31;16.75;;;7.28;;
37847;SDS011;23688;33.130;-117.188;2023-08-08T06:10:58;18.52;;;7.40;;
37847;SDS011;23688;33.130;-117.188;2023-08-08T06:13:24;23.42;;;8.02;;
37847;SDS011;23688;33.130;-117.188;2023-08-08T06:15:51;21.02;;;8.30;;
37847;SDS011;23688;33.130;-117.188;2023-08-08T06:18:17;16.27;;;7.47;;
37847;SDS011;23688;33.130;-117.188;2023-08-08T06:20:44;16.48;;;7.63;;
37847;SDS011;23688;33.130;-117.188;2023-08-08T06:23:10;16.23;;;7.35;;
37847;SDS011;23688;33.130;-117.188;2023-08-08T06:25:36;22.08;;;8.52;;
37847;SDS011;23688;33.130;-117.188;2023-08-08T06:28:05;18.02;;;8.40;;
37847;SDS011;23688;33.130;-117.188;2023-08-08T06:30:32;18.33;;;8.40;;
37847;SDS011;23688;33.130;-117.188;2023-08-08T06:32:58;19.13;;;7.97;;
37847;SDS011;23688;33.130;-117.188;2023-08-08T06:35:24;24.55;;;9.00;;
37847;SDS011;23688;33.130;-117.188;2023-08-08T06:37:53;15.57;;;7.95;;
37847;SDS011;23688;33.130;-117.188;2023-08-08T06:40:19;23.33;;;7.57;;
37847;SDS011;23688;33.130;-117.188;2023-08-08T06:42:46;17.90;;;7.95;;
37847;SDS011;23688;33.130;-117.188;2023-08-08T06:45:12;20.55;;;8.23;;
37847;SDS011;23688;33.130;-117.188;2023-08-08T06:47:44;20.67;;;7.70;;
37847;SDS011;23688;33.130;-117.188;2023-08-08T06:50:12;18.05;;;7.88;;
37847;SDS011;23688;33.130;-117.188;2023-08-08T06:52:38;16.58;;;8.95;;
37847;SDS011;23688;33.130;-117.188;2023-08-08T06:55:04;22.33;;;7.60;;
37847;SDS011;23688;33.130;-117.188;2023-08-08T06:57:32;20.23;;;7.13;;
37847;SDS011;23688;33.130;-117.188;2023-08-08T07:00:03;23.23;;;8.65;;
37847;SDS011;23688;33.130;-117.188;2023-08-08T07:02:33;20.10;;;8.45;;
37847;SDS011;23688;33.130;-117.188;2023-08-08T07:05:02;17.65;;;8.65;;
37847;SDS011;23688;33.130;-117.188;2023-08-08T07:07:29;28.00;;;8.38;;
37847;SDS011;23688;33.130;-117.188;2023-08-08T07:09:58;21.73;;;6.78;;
37847;SDS011;23688;33.130;-117.188;2023-08-08T07:12:24;15.52;;;7.90;;
37847;SDS011;23688;33.130;-117.188;2023-08-08T07:14:51;19.50;;;7.20;;
37847;SDS011;23688;33.130;-117.188;2023-08-08T07:17:17;13.90;;;7.30;;
37847;SDS011;23688;33.130;-117.188;2023-08-08T07:19:43;25.48;;;7.65;;
37847;SDS011;23688;33.130;-117.188;2023-08-08T07:22:09;22.02;;;8.48;;
37847;SDS011;23688;33.130;-117.188;2023-08-08T07:24:37;17.88;;;7.10;;
37847;SDS011;23688;33.130;-117.188;2023-08-08T07:27:04;20.67;;;7.15;;
37847;SDS011;23688;33.130;-117.188;2023-08-08T07:29:31;19.88;;;7.63;;
37847;SDS011;23688;33.130;-117.188;2023-08-08T07:31:57;17.58;;;7.50;;
37847;SDS011;23688;33.130;-117.188;2023-08-08T07:34:24;17.40;;;7.20;;
37847;SDS011;23688;33.130;-117.188;2023-08-08T07:36:50;16.58;;;7.30;;
37847;SDS011;23688;33.130;-117.188;2023-08-08T07:39:17;16.73;;;7.00;;
37847;SDS011;23688;33.130;-117.188;2023-08-08T07:41:43;20.65;;;7.90;;
37847;SDS011;23688;33.130;-117.188;2023-08-08T07:44:11;17.13;;;6.97;;
37847;SDS011;23688;33.130;-117.188;2023-08-08T07:46:37;12.37;;;6.30;;
37847;SDS011;23688;33.130;-117.188;2023-08-08T07:49:04;15.82;;;7.15;;
37847;SDS011;23688;33.130;-117.188;2023-08-08T07:51:31;18.25;;;6.80;;
37847;SDS011;23688;33.130;-117.188;2023-08-08T07:53:58;18.38;;;7.05;;
37847;SDS011;23688;33.130;-117.188;2023-08-08T07:56:25;17.48;;;6.75;;
37847;SDS011;23688;33.130;-117.188;2023-08-08T07:58:52;22.08;;;7.57;;
37847;SDS011;23688;33.130;-117.188;2023-08-08T08:01:18;19.75;;;6.95;;
37847;SDS011;23688;33.130;-117.188;2023-08-08T08:03:44;13.30;;;7.10;;
37847;SDS011;23688;33.130;-117.188;2023-08-08T08:06:11;17.88;;;7.80;;
37847;SDS011;23688;33.130;-117.188;2023-08-08T08:08:38;14.20;;;6.82;;
37847;SDS011;23688;33.130;-117.188;2023-08-08T08:11:05;16.90;;;8.07;;
37847;SDS011;23688;33.130;-117.188;2023-08-08T08:13:31;17.30;;;7.00;;
37847;SDS011;23688;33.130;-117.188;2023-08-08T08:15:57;16.38;;;7.10;;
37847;SDS011;23688;33.130;-117.188;2023-08-08T08:18:24;15.43;;;6.63;;
37847;SDS011;23688;33.130;-117.188;2023-08-08T08:20:50;16.77;;;8.10;;
37847;SDS011;23688;33.130;-117.188;2023-08-08T08:23:16;20.35;;;7.78;;
37847;SDS011;23688;33.130;-117.188;2023-08-08T08:25:42;16.60;;;8.02;;
37847;SDS011;23688;33.130;-117.188;2023-08-08T08:28:09;18.95;;;7.32;;
37847;SDS011;23688;33.130;-117.188;2023-08-08T08:30:36;15.75;;;7.35;;
37847;SDS011;23688;33.130;-117.188;2023-08-08T08:33:02;16.60;;;7.18;;
37847;SDS011;23688;33.130;-117.188;2023-08-08T08:35:29;16.73;;;6.70;;
37847;SDS011;23688;33.130;-117.188;2023-08-08T08:37:55;16.60;;;6.97;;
37847;SDS011;23688;33.130;-117.188;2023-08-08T08:40:22;22.60;;;7.50;;
37847;SDS011;23688;33.130;-117.188;2023-08-08T08:42:49;16.20;;;6.78;;
37847;SDS011;23688;33.130;-117.188;2023-08-08T08:45:16;12.85;;;6.80;;
37847;SDS011;23688;33.130;-117.188;2023-08-08T08:47:49;11.77;;;6.43;;
37847;SDS011;23688;33.130;-117.188;2023-08-08T08:50:21;14.60;;;6.45;;
37847;SDS011;23688;33.130;-117.188;2023-08-08T08:52:48;16.40;;;7.45;;
37847;SDS011;23688;33.130;-117.188;2023-08-08T08:55:16;14.43;;;7.30;;
37847;SDS011;23688;33.130;-117.188;2023-08-08T08:57:42;16.58;;;7.32;;
37847;SDS011;23688;33.130;-117.188;2023-08-08T09:00:10;12.32;;;6.55;;
37847;SDS011;23688;33.130;-117.188;2023-08-08T09:02:37;18.35;;;7.65;;
37847;SDS011;23688;33.130;-117.188;2023-08-08T09:05:03;17.42;;;6.85;;
37847;SDS011;23688;33.130;-117.188;2023-08-08T09:07:31;18.20;;;7.05;;
37847;SDS011;23688;33.130;-117.188;2023-08-08T09:09:58;19.20;;;7.03;;
37847;SDS011;23688;33.130;-117.188;2023-08-08T09:12:24;16.75;;;6.57;;
37847;SDS011;23688;33.130;-117.188;2023-08-08T09:14:54;14.70;;;6.65;;
37847;SDS011;23688;33.130;-117.188;2023-08-08T09:17:21;19.42;;;8.20;;
37847;SDS011;23688;33.130;-117.188;2023-08-08T09:19:50;16.05;;;7.18;;
37847;SDS011;23688;33.130;-117.188;2023-08-08T09:22:19;14.25;;;6.90;;
37847;SDS011;23688;33.130;-117.188;2023-08-08T09:24:45;17.13;;;7.95;;
37847;SDS011;23688;33.130;-117.188;2023-08-08T09:27:12;20.00;;;7.22;;
37847;SDS011;23688;33.130;-117.188;2023-08-08T09:29:39;14.63;;;7.60;;
37847;SDS011;23688;33.130;-117.188;2023-08-08T09:32:07;15.40;;;7.85;;
37847;SDS011;23688;33.130;-117.188;2023-08-08T09:34:34;13.85;;;7.10;;
37847;SDS011;23688;33.130;-117.188;2023-08-08T09:37:01;18.92;;;7.75;;
37847;SDS011;23688;33.130;-117.188;2023-08-08T09:39:28;23.08;;;7.50;;
37847;SDS011;23688;33.130;-117.188;2023-08-08T09:41:57;14.65;;;6.95;;
37847;SDS011;23688;33.130;-117.188;2023-08-08T09:44:24;18.27;;;7.93;;
37847;SDS011;23688;33.130;-117.188;2023-08-08T09:46:55;17.42;;;8.10;;
37847;SDS011;23688;33.130;-117.188;2023-08-08T09:49:21;18.88;;;7.53;;
37847;SDS011;23688;33.130;-117.188;2023-08-08T09:51:48;13.02;;;6.50;;
37847;SDS011;23688;33.130;-117.188;2023-08-08T09:54:16;19.77;;;7.38;;
37847;SDS011;23688;33.130;-117.188;2023-08-08T09:56:43;14.93;;;7.25;;
37847;SDS011;23688;33.130;-117.188;2023-08-08T09:59:09;21.60;;;7.78;;
37847;SDS011;23688;33.130;-117.188;2023-08-08T10:01:42;13.32;;;7.03;;
37847;SDS011;23688;33.130;-117.188;2023-08-08T10:04:08;17.40;;;6.75;;
37847;SDS011;23688;33.130;-117.188;2023-08-08T10:09:03;16.65;;;7.85;;
37847;SDS011;23688;33.130;-117.188;2023-08-08T10:11:30;18.05;;;7.28;;
37847;SDS011;23688;33.130;-117.188;2023-08-08T10:13:58;14.95;;;6.88;;
37847;SDS011;23688;33.130;-117.188;2023-08-08T10:16:28;15.90;;;7.22;;
37847;SDS011;23688;33.130;-117.188;2023-08-08T10:18:59;15.55;;;7.30;;
37847;SDS011;23688;33.130;-117.188;2023-08-08T10:24:03;19.02;;;7.32;;
37847;SDS011;23688;33.130;-117.188;2023-08-08T10:26:32;13.48;;;6.53;;
37847;SDS011;23688;33.130;-117.188;2023-08-08T10:28:59;19.50;;;7.32;;
37847;SDS011;23688;33.130;-117.188;2023-08-08T10:31:26;16.23;;;6.80;;
37847;SDS011;23688;33.130;-117.188;2023-08-08T10:34:05;16.02;;;6.50;;
37847;SDS011;23688;33.130;-117.188;2023-08-08T10:36:48;15.70;;;7.45;;
37847;SDS011;23688;33.130;-117.188;2023-08-08T10:39:20;12.63;;;6.60;;
37847;SDS011;23688;33.130;-117.188;2023-08-08T10:41:49;16.92;;;6.95;;
37847;SDS011;23688;33.130;-117.188;2023-08-08T10:44:22;17.95;;;6.90;;
37847;SDS011;23688;33.130;-117.188;2023-08-08T10:46:51;14.85;;;6.57;;
37847;SDS011;23688;33.130;-117.188;2023-08-08T10:49:21;17.30;;;7.25;;
37847;SDS011;23688;33.130;-117.188;2023-08-08T10:51:49;17.63;;;6.22;;
37847;SDS011;23688;33.130;-117.188;2023-08-08T10:54:22;16.65;;;7.93;;
37847;SDS011;23688;33.130;-117.188;2023-08-08T10:56:53;17.63;;;7.28;;
37847;SDS011;23688;33.130;-117.188;2023-08-08T10:59:27;17.15;;;7.75;;
37847;SDS011;23688;33.130;-117.188;2023-08-08T11:02:02;17.02;;;7.10;;
37847;SDS011;23688;33.130;-117.188;2023-08-08T11:04:29;14.82;;;7.25;;
37847;SDS011;23688;33.130;-117.188;2023-08-08T11:06:58;22.50;;;7.95;;
37847;SDS011;23688;33.130;-117.188;2023-08-08T11:09:24;21.27;;;8.35;;
37847;SDS011;23688;33.130;-117.188;2023-08-08T11:11:51;15.35;;;7.05;;
37847;SDS011;23688;33.130;-117.188;2023-08-08T11:14:19;16.17;;;7.00;;
37847;SDS011;23688;33.130;-117.188;2023-08-08T11:16:47;19.25;;;7.75;;
37847;SDS011;23688;33.130;-117.188;2023-08-08T11:19:15;18.67;;;7.35;;
37847;SDS011;23688;33.130;-117.188;2023-08-08T11:21:42;16.08;;;7.43;;
37847;SDS011;23688;33.130;-117.188;2023-08-08T11:24:10;19.20;;;8.73;;
37847;SDS011;23688;33.130;-117.188;2023-08-08T11:26:38;20.73;;;8.97;;
37847;SDS011;23688;33.130;-117.188;2023-08-08T11:29:06;14.60;;;7.05;;
37847;SDS011;23688;33.130;-117.188;2023-08-08T11:31:36;17.50;;;8.07;;
37847;SDS011;23688;33.130;-117.188;2023-08-08T11:34:03;21.42;;;7.18;;
37847;SDS011;23688;33.130;-117.188;2023-08-08T11:36:33;16.20;;;6.07;;
37847;SDS011;23688;33.130;-117.188;2023-08-08T11:39:01;17.65;;;7.75;;
37847;SDS011;23688;33.130;-117.188;2023-08-08T11:41:33;13.23;;;6.78;;
37847;SDS011;23688;33.130;-117.188;2023-08-08T11:44:02;15.60;;;7.00;;
37847;SDS011;23688;33.130;-117.188;2023-08-08T11:46:29;20.45;;;8.05;;
37847;SDS011;23688;33.130;-117.188;2023-08-08T11:49:01;14.82;;;6.82;;
37847;SDS011;23688;33.130;-117.188;2023-08-08T11:51:29;15.32;;;6.10;;
37847;SDS011;23688;33.130;-117.188;2023-08-08T11:53:56;17.35;;;6.53;;
37847;SDS011;23688;33.130;-117.188;2023-08-08T11:58:50;18.20;;;7.15;;
37847;SDS011;23688;33.130;-117.188;2023-08-08T12:01:22;14.93;;;6.50;;
37847;SDS011;23688;33.130;-117.188;2023-08-08T12:03:48;17.10;;;7.60;;
37847;SDS011;23688;33.130;-117.188;2023-08-08T12:06:15;13.00;;;7.43;;
37847;SDS011;23688;33.130;-117.188;2023-08-08T12:08:42;18.02;;;6.97;;
37847;SDS011;23688;33.130;-117.188;2023-08-08T12:11:10;14.85;;;6.93;;
37847;SDS011;23688;33.130;-117.188;2023-08-08T12:13:38;15.85;;;7.03;;
37847;SDS011;23688;33.130;-117.188;2023-08-08T12:16:06;14.95;;;6.35;;
37847;SDS011;23688;33.130;-117.188;2023-08-08T12:21:03;11.98;;;6.15;;
37847;SDS011;23688;33.130;-117.188;2023-08-08T12:23:30;16.02;;;7.03;;
37847;SDS011;23688;33.130;-117.188;2023-08-08T12:25:57;13.15;;;6.75;;
37847;SDS011;23688;33.130;-117.188;2023-08-08T12:28:24;15.05;;;6.30;;
37847;SDS011;23688;33.130;-117.188;2023-08-08T12:30:51;10.98;;;6.05;;
37847;SDS011;23688;33.130;-117.188;2023-08-08T12:33:17;10.02;;;5.30;;
37847;SDS011;23688;33.130;-117.188;2023-08-08T12:35:44;17.77;;;5.90;;
37847;SDS011;23688;33.130;-117.188;2023-08-08T12:38:10;11.48;;;6.43;;
37847;SDS011;23688;33.130;-117.188;2023-08-08T12:40:36;12.13;;;6.25;;
37847;SDS011;23688;33.130;-117.188;2023-08-08T12:43:03;13.50;;;5.63;;
37847;SDS011;23688;33.130;-117.188;2023-08-08T12:45:29;14.02;;;6.18;;
37847;SDS011;23688;33.130;-117.188;2023-08-08T12:47:56;15.50;;;6.03;;
37847;SDS011;23688;33.130;-117.188;2023-08-08T12:50:22;16.58;;;6.47;;
37847;SDS011;23688;33.130;-117.188;2023-08-08T12:52:48;12.68;;;6.97;;
37847;SDS011;23688;33.130;-117.188;2023-08-08T12:55:15;12.32;;;6.50;;
37847;SDS011;23688;33.130;-117.188;2023-08-08T12:57:43;15.70;;;7.63;;
37847;SDS011;23688;33.130;-117.188;2023-08-08T13:00:10;16.40;;;7.68;;
37847;SDS011;23688;33.130;-117.188;2023-08-08T13:02:38;13.50;;;7.27;;
37847;SDS011;23688;33.130;-117.188;2023-08-08T13:05:04;14.15;;;6.20;;
37847;SDS011;23688;33.130;-117.188;2023-08-08T13:07:32;14.20;;;6.13;;
37847;SDS011;23688;33.130;-117.188;2023-08-08T13:09:59;19.70;;;7.15;;
37847;SDS011;23688;33.130;-117.188;2023-08-08T13:12:25;26.13;;;7.80;;
37847;SDS011;23688;33.130;-117.188;2023-08-08T13:14:51;14.73;;;6.35;;
37847;SDS011;23688;33.130;-117.188;2023-08-08T13:17:18;17.27;;;6.82;;
37847;SDS011;23688;33.130;-117.188;2023-08-08T13:19:44;20.45;;;7.18;;
37847;SDS011;23688;33.130;-117.188;2023-08-08T13:22:11;15.93;;;7.47;;
37847;SDS011;23688;33.130;-117.188;2023-08-08T13:24:38;16.80;;;6.88;;
37847;SDS011;23688;33.130;-117.188;2023-08-08T13:27:05;15.55;;;6.75;;
37847;SDS011;23688;33.130;-117.188;2023-08-08T13:29:31;16.02;;;8.02;;
37847;SDS011;23688;33.130;-117.188;2023-08-08T13:31:57;20.27;;;6.85;;
37847;SDS011;23688;33.130;-117.188;2023-08-08T13:34:23;16.83;;;7.47;;
37847;SDS011;23688;33.130;-117.188;2023-08-08T13:36:50;20.75;;;7.50;;
37847;SDS011;23688;33.130;-117.188;2023-08-08T13:39:16;17.85;;;7.60;;
37847;SDS011;23688;33.130;-117.188;2023-08-08T13:41:42;26.65;;;8.48;;
37847;SDS011;23688;33.130;-117.188;2023-08-08T13:44:09;17.77;;;7.15;;
37847;SDS011;23688;33.130;-117.188;2023-08-08T13:46:35;20.20;;;6.30;;
37847;SDS011;23688;33.130;-117.188;2023-08-08T13:49:01;11.73;;;6.65;;
37847;SDS011;23688;33.130;-117.188;2023-08-08T13:51:28;12.25;;;6.90;;
37847;SDS011;23688;33.130;-117.188;2023-08-08T13:53:54;18.55;;;7.10;;
37847;SDS011;23688;33.130;-117.188;2023-08-08T13:56:20;17.77;;;6.97;;
37847;SDS011;23688;33.130;-117.188;2023-08-08T13:58:48;15.48;;;7.22;;
37847;SDS011;23688;33.130;-117.188;2023-08-08T14:01:15;20.52;;;7.55;;
37847;SDS011;23688;33.130;-117.188;2023-08-08T14:03:41;25.25;;;8.15;;
37847;SDS011;23688;33.130;-117.188;2023-08-08T14:06:09;18.88;;;7.47;;
37847;SDS011;23688;33.130;-117.188;2023-08-08T14:08:35;16.02;;;6.70;;
37847;SDS011;23688;33.130;-117.188;2023-08-08T14:11:02;16.40;;;7.78;;
37847;SDS011;23688;33.130;-117.188;2023-08-08T14:13:28;25.73;;;6.53;;
37847;SDS011;23688;33.130;-117.188;2023-08-08T14:15:54;19.38;;;6.63;;